METAR Data
IDs: Format: Raw Decoded Include TAF

Data at: 1328 UTC 10 Aug 2022

KSBP 101256Z 00000KT 1/4SM FG VV002 12/12 A3002 RMK AO2 SLP163 T01220122
KSBP 101228Z AUTO 00000KT 1/4SM FG VV002 12/12 A3001 RMK AO2 T01170117
KSBP 101214Z AUTO 00000KT 3/4SM BR VV002 12/12 A3001 RMK AO2 T01170117
KSBP 101210Z AUTO 00000KT 2 1/2SM BR BKN002 12/12 A3001 RMK AO2 T01170117
KSBP 101206Z AUTO 00000KT 10SM SCT002 12/12 A3001 RMK AO2 T01170117
KSBP 101156Z AUTO 00000KT 10SM CLR 12/12 A3001 RMK AO2 SLP161 T01220117 10150 20122 52003
KSBP 101056Z AUTO 00000KT 10SM CLR 13/12 A3001 RMK AO2 SLP160 T01280122
KSBP 100956Z AUTO 00000KT 10SM CLR 13/13 A3001 RMK AO2 SLP158 T01330128
KSBP 100856Z AUTO 00000KT 9SM CLR 14/13 A3000 RMK AO2 SLP157 T01390133 58005
KSBP 100756Z AUTO 31003KT 10SM CLR 14/13 A3001 RMK AO2 SLP161 T01390133 402670117
KSBP 100656Z AUTO 25003KT 10SM CLR 14/14 A3002 RMK AO2 SLP161 T01440139
KSBP 100556Z AUTO 00000KT 10SM CLR 15/14 A3001 RMK AO2 SLP162 T01500139 10228 20150 52012
KSBP 100456Z AUTO 31009KT 10SM CLR 15/14 A3001 RMK AO2 SLP159 T01500139
KSBP 100356Z AUTO 31007KT 10SM CLR 15/14 A2999 RMK AO2 SLP154 T01500139
KSBP 100256Z 30013KT 10SM CLR 16/14 A2998 RMK AO2 SLP151 T01560139 53011
KSBP 100156Z 31016KT 10SM CLR 18/14 A2996 RMK AO2 SLP145 T01780139
KSBP 100056Z 32018KT 10SM CLR 21/13 A2996 RMK AO2 SLP143 T02060133
KSBP 092356Z 31015KT 10SM CLR 23/13 A2995 RMK AO2 SLP139 T02280133 10267 20211 56005
KSBP 092256Z 32017KT 10SM CLR 25/13 A2995 RMK AO2 SLP140 T02500128
KSBP 092156Z 31018KT 10SM CLR 25/13 A2995 RMK AO2 SLP139 T02500133
KSBP 092056Z 30011KT 10SM CLR 26/14 A2996 RMK AO2 SLP143 T02610139 58010
KSBP 091956Z 29009KT 10SM CLR 26/14 A2997 RMK AO2 SLP147 T02610139
KSBP 091856Z 29009KT 10SM CLR 24/14 A2998 RMK AO2 SLP152 T02440139
KSBP 091756Z 32005KT 10SM CLR 21/14 A2999 RMK AO2 SLP155 T02110139 10211 20117 50000
KSBP 091656Z 20004KT 10SM FEW010 17/14 A3000 RMK AO2 SLP156 T01720144
KSBP 091646Z 15005KT 10SM SCT010 17/14 A3000 RMK AO2 T01670139
KSBP 091556Z 16006KT 8SM OVC006 14/14 A3000 RMK AO2 SLP159 T01440139
KSBP 091510Z 13006KT 8SM OVC005 14/14 A3000 RMK AO2 T01390139
KSBP 091456Z 14005KT 8SM OVC004 14/14 A2999 RMK AO2 SLP156 T01390139 53007
KSBP 091406Z 19003KT 7SM OVC004 13/13 A2998 RMK AO2 T01280128
KSBP 091356Z 14004KT 8SM OVC006 13/13 A2998 RMK AO2 SLP151 T01280128
KSBP 091256Z AUTO 00000KT 9SM BKN006 12/12 A2997 RMK AO2 SLP147 T01220122
KSBP 091254Z AUTO 00000KT 9SM BKN006 12/12 A2997 RMK AO2
KSBP 091245Z AUTO 00000KT 10SM SCT006 12/12 A2997 RMK AO2 T01170117
KSBP 091156Z AUTO 00000KT 10SM CLR 13/13 A2996 RMK AO2 SLP143 T01280128 10139 20122 52006
KSBP 091056Z AUTO 00000KT 10SM CLR 13/13 A2996 RMK AO2 SLP142 T01280128
KSBP 090956Z AUTO 00000KT 10SM CLR 13/13 A2995 RMK AO2 SLP138 T01330128
KSBP 090856Z AUTO 14003KT 10SM CLR 13/13 A2994 RMK AO2 SLP136 T01330128 58008
KSBP 090756Z AUTO 00000KT 10SM CLR 14/13 A2996 RMK AO2 SLP143 T01390133 402610117
KSBP 090656Z AUTO 00000KT 10SM CLR 13/13 A2996 RMK AO2 SLP144 T01330128
KSBP 090556Z AUTO 28003KT 10SM CLR 14/13 A2996 RMK AO2 SLP145 T01390133 10239 20133 51013
KSBP 090456Z AUTO 30005KT 10SM CLR 14/13 A2996 RMK AO2 SLP144 T01440133
KSBP 090356Z AUTO 31008KT 10SM CLR 14/13 A2995 RMK AO2 SLP139 T01440133
KSBP 090256Z 32011KT 10SM CLR 16/13 A2992 RMK AO2 SLP132 T01610133 53005
KSBP 090156Z 31012KT 10SM CLR 19/13 A2992 RMK AO2 SLP129 T01940133